sensor_id;sensor_type;location;lat;lon;timestamp;temperature;humidity
15930;DHT22;8064;51.142;4.780;2022-08-01T00:01:53;21.70;96.90
15930;DHT22;8064;51.142;4.780;2022-08-01T00:04:19;21.70;96.90
15930;DHT22;8064;51.142;4.780;2022-08-01T00:06:45;21.70;96.90
15930;DHT22;8064;51.142;4.780;2022-08-01T00:09:11;21.70;97.00
15930;DHT22;8064;51.142;4.780;2022-08-01T00:11:37;21.70;97.30
15930;DHT22;8064;51.142;4.780;2022-08-01T00:14:02;21.70;97.00
15930;DHT22;8064;51.142;4.780;2022-08-01T00:16:28;21.70;97.10
15930;DHT22;8064;51.142;4.780;2022-08-01T00:18:54;21.70;97.50
15930;DHT22;8064;51.142;4.780;2022-08-01T00:21:21;21.70;97.10
15930;DHT22;8064;51.142;4.780;2022-08-01T00:23:47;21.60;97.10
15930;DHT22;8064;51.142;4.780;2022-08-01T00:26:13;21.60;97.10
15930;DHT22;8064;51.142;4.780;2022-08-01T00:28:40;21.60;97.20
15930;DHT22;8064;51.142;4.780;2022-08-01T00:31:06;21.60;97.20
15930;DHT22;8064;51.142;4.780;2022-08-01T00:33:32;21.60;97.30
15930;DHT22;8064;51.142;4.780;2022-08-01T00:35:57;21.60;97.30
15930;DHT22;8064;51.142;4.780;2022-08-01T00:38:23;21.60;97.50
15930;DHT22;8064;51.142;4.780;2022-08-01T00:40:49;21.60;97.40
15930;DHT22;8064;51.142;4.780;2022-08-01T00:43:15;21.60;97.40
15930;DHT22;8064;51.142;4.780;2022-08-01T00:45:41;21.60;97.50
15930;DHT22;8064;51.142;4.780;2022-08-01T00:48:07;21.60;97.50
15930;DHT22;8064;51.142;4.780;2022-08-01T00:50:33;21.50;97.50
15930;DHT22;8064;51.142;4.780;2022-08-01T00:53:01;21.50;97.50
15930;DHT22;8064;51.142;4.780;2022-08-01T00:55:27;21.50;97.50
15930;DHT22;8064;51.142;4.780;2022-08-01T00:57:54;21.50;97.60
15930;DHT22;8064;51.142;4.780;2022-08-01T01:00:21;21.50;97.60
15930;DHT22;8064;51.142;4.780;2022-08-01T01:02:47;21.50;97.70
15930;DHT22;8064;51.142;4.780;2022-08-01T01:05:13;21.40;97.70
15930;DHT22;8064;51.142;4.780;2022-08-01T01:10:42;21.40;97.70
15930;DHT22;8064;51.142;4.780;2022-08-01T01:13:18;21.40;97.80
15930;DHT22;8064;51.142;4.780;2022-08-01T01:15:52;21.40;97.80
15930;DHT22;8064;51.142;4.780;2022-08-01T01:18:23;21.40;97.80
15930;DHT22;8064;51.142;4.780;2022-08-01T01:21:00;21.40;97.80
15930;DHT22;8064;51.142;4.780;2022-08-01T01:34:47;21.40;98.00
15930;DHT22;8064;51.142;4.780;2022-08-01T01:37:17;21.40;98.00
15930;DHT22;8064;51.142;4.780;2022-08-01T01:39:45;21.40;98.00
15930;DHT22;8064;51.142;4.780;2022-08-01T01:42:12;21.40;98.00
15930;DHT22;8064;51.142;4.780;2022-08-01T01:44:40;21.40;98.10
15930;DHT22;8064;51.142;4.780;2022-08-01T01:47:07;21.40;98.10
15930;DHT22;8064;51.142;4.780;2022-08-01T01:49:34;21.40;98.10
15930;DHT22;8064;51.142;4.780;2022-08-01T01:52:02;21.40;98.10
15930;DHT22;8064;51.142;4.780;2022-08-01T01:54:32;21.40;98.20
15930;DHT22;8064;51.142;4.780;2022-08-01T01:56:59;21.40;98.20
15930;DHT22;8064;51.142;4.780;2022-08-01T01:59:29;21.40;98.30
15930;DHT22;8064;51.142;4.780;2022-08-01T02:01:59;21.40;98.30
15930;DHT22;8064;51.142;4.780;2022-08-01T02:04:27;21.40;98.30
15930;DHT22;8064;51.142;4.780;2022-08-01T02:06:53;21.40;98.30
15930;DHT22;8064;51.142;4.780;2022-08-01T02:09:21;21.40;98.30
15930;DHT22;8064;51.142;4.780;2022-08-01T02:11:48;21.30;98.30
15930;DHT22;8064;51.142;4.780;2022-08-01T02:14:15;21.30;98.30
15930;DHT22;8064;51.142;4.780;2022-08-01T02:16:45;21.30;98.40
15930;DHT22;8064;51.142;4.780;2022-08-01T02:19:12;21.30;98.50
15930;DHT22;8064;51.142;4.780;2022-08-01T02:21:42;21.30;98.50
15930;DHT22;8064;51.142;4.780;2022-08-01T02:24:13;21.30;98.50
15930;DHT22;8064;51.142;4.780;2022-08-01T02:26:44;21.30;98.60
15930;DHT22;8064;51.142;4.780;2022-08-01T02:29:18;21.30;98.60
15930;DHT22;8064;51.142;4.780;2022-08-01T02:31:46;21.30;98.70
15930;DHT22;8064;51.142;4.780;2022-08-01T02:34:17;21.20;98.70
15930;DHT22;8064;51.142;4.780;2022-08-01T02:36:44;21.30;98.80
15930;DHT22;8064;51.142;4.780;2022-08-01T02:39:13;21.20;98.80
15930;DHT22;8064;51.142;4.780;2022-08-01T02:41:43;21.20;98.90
15930;DHT22;8064;51.142;4.780;2022-08-01T02:44:14;21.20;99.00
15930;DHT22;8064;51.142;4.780;2022-08-01T02:46:49;21.20;99.10
15930;DHT22;8064;51.142;4.780;2022-08-01T02:49:16;21.20;99.10
15930;DHT22;8064;51.142;4.780;2022-08-01T02:51:45;21.20;99.20
15930;DHT22;8064;51.142;4.780;2022-08-01T02:54:12;21.10;99.20
15930;DHT22;8064;51.142;4.780;2022-08-01T02:56:39;21.10;99.30
15930;DHT22;8064;51.142;4.780;2022-08-01T02:59:12;21.10;99.40
15930;DHT22;8064;51.142;4.780;2022-08-01T03:01:40;21.10;99.60
15930;DHT22;8064;51.142;4.780;2022-08-01T03:04:08;21.00;99.60
15930;DHT22;8064;51.142;4.780;2022-08-01T03:06:35;21.00;99.80
15930;DHT22;8064;51.142;4.780;2022-08-01T03:09:03;20.90;99.90
15930;DHT22;8064;51.142;4.780;2022-08-01T03:11:30;20.90;99.90
15930;DHT22;8064;51.142;4.780;2022-08-01T03:13:58;20.90;99.90
15930;DHT22;8064;51.142;4.780;2022-08-01T03:16:26;20.80;99.90
15930;DHT22;8064;51.142;4.780;2022-08-01T03:18:53;20.80;99.90
15930;DHT22;8064;51.142;4.780;2022-08-01T03:21:22;20.80;99.90
15930;DHT22;8064;51.142;4.780;2022-08-01T03:23:50;20.70;99.90
15930;DHT22;8064;51.142;4.780;2022-08-01T03:26:25;20.70;99.90
15930;DHT22;8064;51.142;4.780;2022-08-01T03:28:52;20.60;99.90
15930;DHT22;8064;51.142;4.780;2022-08-01T03:31:20;20.60;99.90
15930;DHT22;8064;51.142;4.780;2022-08-01T03:33:46;20.60;99.90
15930;DHT22;8064;51.142;4.780;2022-08-01T03:36:12;20.60;99.90
15930;DHT22;8064;51.142;4.780;2022-08-01T03:38:40;20.50;99.90
15930;DHT22;8064;51.142;4.780;2022-08-01T03:41:27;20.50;99.90
15930;DHT22;8064;51.142;4.780;2022-08-01T03:43:57;20.50;99.90
15930;DHT22;8064;51.142;4.780;2022-08-01T03:46:45;20.40;99.90
15930;DHT22;8064;51.142;4.780;2022-08-01T03:49:17;20.40;99.90
15930;DHT22;8064;51.142;4.780;2022-08-01T03:51:47;20.40;99.90
15930;DHT22;8064;51.142;4.780;2022-08-01T03:54:17;20.40;99.90
15930;DHT22;8064;51.142;4.780;2022-08-01T03:56:47;20.30;99.90
15930;DHT22;8064;51.142;4.780;2022-08-01T03:59:15;20.40;99.90
15930;DHT22;8064;51.142;4.780;2022-08-01T04:01:43;20.30;99.90
15930;DHT22;8064;51.142;4.780;2022-08-01T04:04:11;20.30;99.90
15930;DHT22;8064;51.142;4.780;2022-08-01T04:06:38;20.30;99.90
15930;DHT22;8064;51.142;4.780;2022-08-01T04:09:04;20.30;99.90
15930;DHT22;8064;51.142;4.780;2022-08-01T04:11:29;20.30;99.90
15930;DHT22;8064;51.142;4.780;2022-08-01T04:13:55;20.30;99.90
15930;DHT22;8064;51.142;4.780;2022-08-01T04:16:22;20.30;99.90
15930;DHT22;8064;51.142;4.780;2022-08-01T04:18:48;20.30;99.90
15930;DHT22;8064;51.142;4.780;2022-08-01T04:21:14;20.30;99.90
15930;DHT22;8064;51.142;4.780;2022-08-01T04:23:44;20.30;99.90
15930;DHT22;8064;51.142;4.780;2022-08-01T04:26:12;20.30;99.90
15930;DHT22;8064;51.142;4.780;2022-08-01T04:28:39;20.30;99.90
15930;DHT22;8064;51.142;4.780;2022-08-01T04:31:08;20.30;99.90
15930;DHT22;8064;51.142;4.780;2022-08-01T04:33:35;20.30;99.90
15930;DHT22;8064;51.142;4.780;2022-08-01T04:36:03;20.30;99.90
15930;DHT22;8064;51.142;4.780;2022-08-01T04:38:34;20.30;99.90
15930;DHT22;8064;51.142;4.780;2022-08-01T04:41:02;20.30;99.90
15930;DHT22;8064;51.142;4.780;2022-08-01T04:43:31;20.30;99.90
15930;DHT22;8064;51.142;4.780;2022-08-01T04:45:58;20.30;99.90
15930;DHT22;8064;51.142;4.780;2022-08-01T04:48:24;20.30;99.90
15930;DHT22;8064;51.142;4.780;2022-08-01T04:50:51;20.30;99.90
15930;DHT22;8064;51.142;4.780;2022-08-01T04:53:19;20.30;99.90
15930;DHT22;8064;51.142;4.780;2022-08-01T04:55:47;20.40;99.90
15930;DHT22;8064;51.142;4.780;2022-08-01T04:58:14;20.40;99.90
15930;DHT22;8064;51.142;4.780;2022-08-01T05:00:40;20.40;99.90
15930;DHT22;8064;51.142;4.780;2022-08-01T05:03:06;20.50;99.90
15930;DHT22;8064;51.142;4.780;2022-08-01T05:05:32;20.50;99.90
15930;DHT22;8064;51.142;4.780;2022-08-01T05:07:57;20.50;99.90
15930;DHT22;8064;51.142;4.780;2022-08-01T05:10:23;20.60;99.90
15930;DHT22;8064;51.142;4.780;2022-08-01T05:12:49;20.60;99.90
15930;DHT22;8064;51.142;4.780;2022-08-01T05:15:15;20.60;99.90
15930;DHT22;8064;51.142;4.780;2022-08-01T05:17:41;20.60;99.90
15930;DHT22;8064;51.142;4.780;2022-08-01T05:20:08;20.70;99.90
15930;DHT22;8064;51.142;4.780;2022-08-01T05:22:33;20.70;99.90
15930;DHT22;8064;51.142;4.780;2022-08-01T05:24:59;20.70;99.90
15930;DHT22;8064;51.142;4.780;2022-08-01T05:27:26;20.70;99.90
15930;DHT22;8064;51.142;4.780;2022-08-01T05:29:51;20.70;99.90
15930;DHT22;8064;51.142;4.780;2022-08-01T05:32:17;20.70;99.90
15930;DHT22;8064;51.142;4.780;2022-08-01T05:34:43;20.70;99.90
15930;DHT22;8064;51.142;4.780;2022-08-01T05:37:10;20.80;99.90
15930;DHT22;8064;51.142;4.780;2022-08-01T05:39:36;20.80;99.90
15930;DHT22;8064;51.142;4.780;2022-08-01T05:42:02;20.80;99.90
15930;DHT22;8064;51.142;4.780;2022-08-01T05:44:27;20.90;99.90
15930;DHT22;8064;51.142;4.780;2022-08-01T05:46:53;20.90;99.90
15930;DHT22;8064;51.142;4.780;2022-08-01T05:49:19;21.00;99.90
15930;DHT22;8064;51.142;4.780;2022-08-01T05:51:45;21.10;99.90
15930;DHT22;8064;51.142;4.780;2022-08-01T05:54:11;21.20;99.90
15930;DHT22;8064;51.142;4.780;2022-08-01T05:56:36;21.30;99.90
15930;DHT22;8064;51.142;4.780;2022-08-01T05:59:02;21.30;99.90
15930;DHT22;8064;51.142;4.780;2022-08-01T06:01:28;21.40;99.90
15930;DHT22;8064;51.142;4.780;2022-08-01T06:03:54;21.50;99.90
15930;DHT22;8064;51.142;4.780;2022-08-01T06:06:22;21.50;99.90
15930;DHT22;8064;51.142;4.780;2022-08-01T06:08:48;21.50;99.90
15930;DHT22;8064;51.142;4.780;2022-08-01T06:11:14;21.50;99.90
15930;DHT22;8064;51.142;4.780;2022-08-01T06:13:40;21.60;99.90
15930;DHT22;8064;51.142;4.780;2022-08-01T06:16:05;21.60;99.90
15930;DHT22;8064;51.142;4.780;2022-08-01T06:18:31;21.60;99.90
15930;DHT22;8064;51.142;4.780;2022-08-01T06:20:57;21.60;99.90
15930;DHT22;8064;51.142;4.780;2022-08-01T06:23:23;21.60;99.90
15930;DHT22;8064;51.142;4.780;2022-08-01T06:25:52;21.70;99.90
15930;DHT22;8064;51.142;4.780;2022-08-01T06:28:17;21.70;99.90
15930;DHT22;8064;51.142;4.780;2022-08-01T06:30:43;21.70;99.90
15930;DHT22;8064;51.142;4.780;2022-08-01T06:33:09;21.80;99.90
15930;DHT22;8064;51.142;4.780;2022-08-01T06:35:35;21.80;99.90
15930;DHT22;8064;51.142;4.780;2022-08-01T06:38:02;21.80;99.90
15930;DHT22;8064;51.142;4.780;2022-08-01T06:40:28;21.80;99.90
15930;DHT22;8064;51.142;4.780;2022-08-01T06:42:54;21.90;99.90
15930;DHT22;8064;51.142;4.780;2022-08-01T06:45:21;21.90;99.90
15930;DHT22;8064;51.142;4.780;2022-08-01T06:47:48;22.00;99.90
15930;DHT22;8064;51.142;4.780;2022-08-01T06:50:14;22.00;99.90
15930;DHT22;8064;51.142;4.780;2022-08-01T06:52:40;22.10;99.90
15930;DHT22;8064;51.142;4.780;2022-08-01T06:55:06;22.10;99.90
15930;DHT22;8064;51.142;4.780;2022-08-01T06:57:33;22.20;99.90
15930;DHT22;8064;51.142;4.780;2022-08-01T07:00:02;22.20;99.90
15930;DHT22;8064;51.142;4.780;2022-08-01T07:02:28;22.20;99.90
15930;DHT22;8064;51.142;4.780;2022-08-01T07:04:54;22.30;99.90
15930;DHT22;8064;51.142;4.780;2022-08-01T07:07:19;22.40;99.90
15930;DHT22;8064;51.142;4.780;2022-08-01T07:09:45;22.50;99.90
15930;DHT22;8064;51.142;4.780;2022-08-01T07:12:11;22.70;99.90
15930;DHT22;8064;51.142;4.780;2022-08-01T07:14:37;22.80;99.90
15930;DHT22;8064;51.142;4.780;2022-08-01T07:17:02;22.90;99.90
15930;DHT22;8064;51.142;4.780;2022-08-01T07:19:28;23.10;99.90
15930;DHT22;8064;51.142;4.780;2022-08-01T07:21:54;23.20;99.90
15930;DHT22;8064;51.142;4.780;2022-08-01T07:24:20;23.10;99.60
15930;DHT22;8064;51.142;4.780;2022-08-01T07:26:47;23.20;99.50
15930;DHT22;8064;51.142;4.780;2022-08-01T07:29:13;23.30;99.30
15930;DHT22;8064;51.142;4.780;2022-08-01T07:31:40;23.30;99.10
15930;DHT22;8064;51.142;4.780;2022-08-01T07:34:06;23.50;98.80
15930;DHT22;8064;51.142;4.780;2022-08-01T07:36:32;23.60;98.60
15930;DHT22;8064;51.142;4.780;2022-08-01T07:38:59;23.50;98.40
15930;DHT22;8064;51.142;4.780;2022-08-01T07:41:25;23.50;98.20
15930;DHT22;8064;51.142;4.780;2022-08-01T07:43:51;23.40;98.00
15930;DHT22;8064;51.142;4.780;2022-08-01T07:46:17;23.50;97.90
15930;DHT22;8064;51.142;4.780;2022-08-01T07:48:42;23.60;97.70
15930;DHT22;8064;51.142;4.780;2022-08-01T07:51:09;23.80;97.50
15930;DHT22;8064;51.142;4.780;2022-08-01T07:53:36;23.90;97.20
15930;DHT22;8064;51.142;4.780;2022-08-01T07:56:02;24.00;97.00
15930;DHT22;8064;51.142;4.780;2022-08-01T07:58:30;24.00;96.80
15930;DHT22;8064;51.142;4.780;2022-08-01T08:00:56;23.90;96.70
15930;DHT22;8064;51.142;4.780;2022-08-01T08:03:22;23.90;96.50
15930;DHT22;8064;51.142;4.780;2022-08-01T08:05:48;23.80;96.40
15930;DHT22;8064;51.142;4.780;2022-08-01T08:08:14;23.80;96.20
15930;DHT22;8064;51.142;4.780;2022-08-01T08:10:41;23.80;96.10
15930;DHT22;8064;51.142;4.780;2022-08-01T08:13:09;23.80;95.90
15930;DHT22;8064;51.142;4.780;2022-08-01T08:15:35;23.90;95.90
15930;DHT22;8064;51.142;4.780;2022-08-01T08:18:01;24.10;95.70
15930;DHT22;8064;51.142;4.780;2022-08-01T08:20:30;24.20;95.30
15930;DHT22;8064;51.142;4.780;2022-08-01T08:22:57;24.30;95.10
15930;DHT22;8064;51.142;4.780;2022-08-01T08:25:24;24.30;95.00
15930;DHT22;8064;51.142;4.780;2022-08-01T08:27:51;24.40;95.00
15930;DHT22;8064;51.142;4.780;2022-08-01T08:30:17;24.50;94.90
15930;DHT22;8064;51.142;4.780;2022-08-01T08:32:43;24.60;94.80
15930;DHT22;8064;51.142;4.780;2022-08-01T08:35:09;24.90;95.00
15930;DHT22;8064;51.142;4.780;2022-08-01T08:37:36;25.10;94.80
15930;DHT22;8064;51.142;4.780;2022-08-01T08:40:03;25.30;94.50
15930;DHT22;8064;51.142;4.780;2022-08-01T08:42:30;25.30;94.10
15930;DHT22;8064;51.142;4.780;2022-08-01T08:44:56;25.30;94.30
15930;DHT22;8064;51.142;4.780;2022-08-01T08:47:22;25.30;93.70
15930;DHT22;8064;51.142;4.780;2022-08-01T08:49:52;25.20;93.60
15930;DHT22;8064;51.142;4.780;2022-08-01T08:52:20;25.20;93.60
15930;DHT22;8064;51.142;4.780;2022-08-01T08:54:47;25.40;93.70
15930;DHT22;8064;51.142;4.780;2022-08-01T08:57:14;25.50;93.60
15930;DHT22;8064;51.142;4.780;2022-08-01T08:59:40;25.70;93.30
15930;DHT22;8064;51.142;4.780;2022-08-01T09:02:08;25.80;93.00
15930;DHT22;8064;51.142;4.780;2022-08-01T09:04:36;25.80;92.80
15930;DHT22;8064;51.142;4.780;2022-08-01T09:07:04;25.90;92.70
15930;DHT22;8064;51.142;4.780;2022-08-01T09:09:30;26.10;92.60
15930;DHT22;8064;51.142;4.780;2022-08-01T09:11:56;26.40;92.30
15930;DHT22;8064;51.142;4.780;2022-08-01T09:14:22;26.60;92.00
15930;DHT22;8064;51.142;4.780;2022-08-01T09:19:26;27.20;90.90
15930;DHT22;8064;51.142;4.780;2022-08-01T09:22:01;27.40;90.50
15930;DHT22;8064;51.142;4.780;2022-08-01T09:24:29;27.70;90.00
15930;DHT22;8064;51.142;4.780;2022-08-01T09:26:56;27.70;89.20
15930;DHT22;8064;51.142;4.780;2022-08-01T09:29:25;27.80;88.80
15930;DHT22;8064;51.142;4.780;2022-08-01T09:31:51;28.00;88.50
15930;DHT22;8064;51.142;4.780;2022-08-01T09:34:26;28.20;87.80
15930;DHT22;8064;51.142;4.780;2022-08-01T09:36:54;28.50;87.30
15930;DHT22;8064;51.142;4.780;2022-08-01T09:39:23;28.50;86.80
15930;DHT22;8064;51.142;4.780;2022-08-01T09:41:50;28.40;86.30
15930;DHT22;8064;51.142;4.780;2022-08-01T09:44:17;28.40;86.00
15930;DHT22;8064;51.142;4.780;2022-08-01T09:47:02;28.50;85.70
15930;DHT22;8064;51.142;4.780;2022-08-01T09:49:31;28.60;84.80
15930;DHT22;8064;51.142;4.780;2022-08-01T09:51:58;28.80;84.30
15930;DHT22;8064;51.142;4.780;2022-08-01T09:54:30;28.90;83.40
15930;DHT22;8064;51.142;4.780;2022-08-01T09:57:17;29.10;82.20
15930;DHT22;8064;51.142;4.780;2022-08-01T09:59:46;29.10;81.00
15930;DHT22;8064;51.142;4.780;2022-08-01T10:02:14;29.20;81.20
15930;DHT22;8064;51.142;4.780;2022-08-01T10:04:52;29.40;81.00
15930;DHT22;8064;51.142;4.780;2022-08-01T10:07:18;29.50;80.50
15930;DHT22;8064;51.142;4.780;2022-08-01T10:09:45;29.60;80.40
15930;DHT22;8064;51.142;4.780;2022-08-01T10:12:15;29.60;80.50
15930;DHT22;8064;51.142;4.780;2022-08-01T10:14:43;29.70;80.30
15930;DHT22;8064;51.142;4.780;2022-08-01T10:17:12;29.90;79.50
15930;DHT22;8064;51.142;4.780;2022-08-01T10:19:40;30.10;78.80
15930;DHT22;8064;51.142;4.780;2022-08-01T10:22:09;30.30;78.00
15930;DHT22;8064;51.142;4.780;2022-08-01T10:24:39;30.50;77.10
15930;DHT22;8064;51.142;4.780;2022-08-01T10:27:07;30.60;75.90
15930;DHT22;8064;51.142;4.780;2022-08-01T10:29:51;30.60;74.80
15930;DHT22;8064;51.142;4.780;2022-08-01T10:32:21;30.50;74.60
15930;DHT22;8064;51.142;4.780;2022-08-01T10:34:49;30.30;75.20
15930;DHT22;8064;51.142;4.780;2022-08-01T10:37:15;30.10;75.40
15930;DHT22;8064;51.142;4.780;2022-08-01T10:39:41;29.80;75.90
15930;DHT22;8064;51.142;4.780;2022-08-01T10:42:09;29.50;75.40
15930;DHT22;8064;51.142;4.780;2022-08-01T10:44:36;29.30;75.80
15930;DHT22;8064;51.142;4.780;2022-08-01T10:47:21;29.10;76.40
15930;DHT22;8064;51.142;4.780;2022-08-01T10:50:17;28.80;76.80
15930;DHT22;8064;51.142;4.780;2022-08-01T10:53:07;28.80;79.10
15930;DHT22;8064;51.142;4.780;2022-08-01T10:55:46;28.80;78.70
15930;DHT22;8064;51.142;4.780;2022-08-01T10:58:12;28.80;78.30
15930;DHT22;8064;51.142;4.780;2022-08-01T11:00:38;28.80;78.50
15930;DHT22;8064;51.142;4.780;2022-08-01T11:03:04;28.70;78.40
15930;DHT22;8064;51.142;4.780;2022-08-01T11:05:33;28.60;79.10
15930;DHT22;8064;51.142;4.780;2022-08-01T11:08:06;28.60;78.20
15930;DHT22;8064;51.142;4.780;2022-08-01T11:10:50;28.50;77.60
15930;DHT22;8064;51.142;4.780;2022-08-01T11:16:28;28.50;77.40
15930;DHT22;8064;51.142;4.780;2022-08-01T11:18:54;28.50;76.90
15930;DHT22;8064;51.142;4.780;2022-08-01T11:21:20;28.40;76.80
15930;DHT22;8064;51.142;4.780;2022-08-01T11:23:50;28.40;77.40
15930;DHT22;8064;51.142;4.780;2022-08-01T11:26:18;28.40;77.80
15930;DHT22;8064;51.142;4.780;2022-08-01T11:28:46;28.40;78.00
15930;DHT22;8064;51.142;4.780;2022-08-01T11:31:32;28.40;78.20
15930;DHT22;8064;51.142;4.780;2022-08-01T11:33:59;28.40;79.00
15930;DHT22;8064;51.142;4.780;2022-08-01T11:36:25;28.50;78.10
15930;DHT22;8064;51.142;4.780;2022-08-01T11:41:36;28.50;78.40
15930;DHT22;8064;51.142;4.780;2022-08-01T11:47:01;28.50;78.40
15930;DHT22;8064;51.142;4.780;2022-08-01T11:57:30;28.50;78.20
15930;DHT22;8064;51.142;4.780;2022-08-01T11:59:59;28.50;78.30
15930;DHT22;8064;51.142;4.780;2022-08-01T12:02:38;28.50;78.10
15930;DHT22;8064;51.142;4.780;2022-08-01T12:05:08;28.60;77.50
15930;DHT22;8064;51.142;4.780;2022-08-01T12:07:35;28.60;77.40
15930;DHT22;8064;51.142;4.780;2022-08-01T12:12:31;28.60;76.60
15930;DHT22;8064;51.142;4.780;2022-08-01T12:14:59;28.50;76.70
15930;DHT22;8064;51.142;4.780;2022-08-01T12:17:45;28.60;77.20
15930;DHT22;8064;51.142;4.780;2022-08-01T12:20:14;28.60;77.10
15930;DHT22;8064;51.142;4.780;2022-08-01T12:22:41;28.60;76.90
15930;DHT22;8064;51.142;4.780;2022-08-01T12:25:09;28.60;76.70
15930;DHT22;8064;51.142;4.780;2022-08-01T12:27:36;28.70;76.30
15930;DHT22;8064;51.142;4.780;2022-08-01T12:30:05;28.60;76.10
15930;DHT22;8064;51.142;4.780;2022-08-01T12:32:33;28.60;76.10
15930;DHT22;8064;51.142;4.780;2022-08-01T12:37:52;28.50;75.80
15930;DHT22;8064;51.142;4.780;2022-08-01T12:43:07;28.50;75.90
15930;DHT22;8064;51.142;4.780;2022-08-01T12:45:36;28.50;75.90
15930;DHT22;8064;51.142;4.780;2022-08-01T12:48:08;28.50;75.50
15930;DHT22;8064;51.142;4.780;2022-08-01T12:50:37;28.40;74.70
15930;DHT22;8064;51.142;4.780;2022-08-01T12:53:04;28.40;74.40
15930;DHT22;8064;51.142;4.780;2022-08-01T12:55:30;28.40;74.70
15930;DHT22;8064;51.142;4.780;2022-08-01T12:58:08;28.40;74.90
15930;DHT22;8064;51.142;4.780;2022-08-01T13:00:36;28.40;75.10
15930;DHT22;8064;51.142;4.780;2022-08-01T13:08:12;28.40;73.60
15930;DHT22;8064;51.142;4.780;2022-08-01T13:10:39;28.40;73.40
15930;DHT22;8064;51.142;4.780;2022-08-01T13:13:05;28.40;73.70
15930;DHT22;8064;51.142;4.780;2022-08-01T13:15:33;28.40;73.60
15930;DHT22;8064;51.142;4.780;2022-08-01T13:18:21;28.40;73.30
15930;DHT22;8064;51.142;4.780;2022-08-01T13:20:47;28.40;73.60
15930;DHT22;8064;51.142;4.780;2022-08-01T13:23:14;28.30;73.70
15930;DHT22;8064;51.142;4.780;2022-08-01T13:25:55;28.30;73.70
15930;DHT22;8064;51.142;4.780;2022-08-01T13:28:23;28.20;73.40
15930;DHT22;8064;51.142;4.780;2022-08-01T13:30:52;28.30;73.60
15930;DHT22;8064;51.142;4.780;2022-08-01T13:33:18;28.20;73.60
15930;DHT22;8064;51.142;4.780;2022-08-01T13:35:44;28.20;73.60
15930;DHT22;8064;51.142;4.780;2022-08-01T13:38:11;28.20;73.80
15930;DHT22;8064;51.142;4.780;2022-08-01T13:40:37;28.20;73.80
15930;DHT22;8064;51.142;4.780;2022-08-01T13:43:03;28.20;74.10
15930;DHT22;8064;51.142;4.780;2022-08-01T13:45:28;28.20;74.40
15930;DHT22;8064;51.142;4.780;2022-08-01T13:47:54;28.20;74.30
15930;DHT22;8064;51.142;4.780;2022-08-01T13:50:20;28.20;74.60
15930;DHT22;8064;51.142;4.780;2022-08-01T13:52:45;28.20;74.50
15930;DHT22;8064;51.142;4.780;2022-08-01T13:55:11;28.10;74.10
15930;DHT22;8064;51.142;4.780;2022-08-01T13:57:37;28.10;74.20
15930;DHT22;8064;51.142;4.780;2022-08-01T14:00:06;28.00;74.20
15930;DHT22;8064;51.142;4.780;2022-08-01T14:02:32;27.90;74.20
15930;DHT22;8064;51.142;4.780;2022-08-01T14:04:58;27.80;74.40
15930;DHT22;8064;51.142;4.780;2022-08-01T14:07:24;27.80;74.80
15930;DHT22;8064;51.142;4.780;2022-08-01T14:09:50;27.70;74.70
15930;DHT22;8064;51.142;4.780;2022-08-01T14:12:16;27.70;74.80
15930;DHT22;8064;51.142;4.780;2022-08-01T14:14:42;27.60;75.00
15930;DHT22;8064;51.142;4.780;2022-08-01T14:17:07;27.50;74.90
15930;DHT22;8064;51.142;4.780;2022-08-01T14:19:33;27.50;75.90
15930;DHT22;8064;51.142;4.780;2022-08-01T14:21:59;27.50;75.20
15930;DHT22;8064;51.142;4.780;2022-08-01T14:24:24;27.50;75.20
15930;DHT22;8064;51.142;4.780;2022-08-01T14:26:51;27.40;75.20
15930;DHT22;8064;51.142;4.780;2022-08-01T14:29:17;27.40;75.10
15930;DHT22;8064;51.142;4.780;2022-08-01T14:31:43;27.40;74.80
15930;DHT22;8064;51.142;4.780;2022-08-01T14:34:09;27.40;75.00
15930;DHT22;8064;51.142;4.780;2022-08-01T14:36:34;27.30;75.40
15930;DHT22;8064;51.142;4.780;2022-08-01T14:39:00;27.30;75.50
15930;DHT22;8064;51.142;4.780;2022-08-01T14:41:26;27.30;75.70
15930;DHT22;8064;51.142;4.780;2022-08-01T14:43:52;27.20;75.80
15930;DHT22;8064;51.142;4.780;2022-08-01T14:46:18;27.20;75.80
15930;DHT22;8064;51.142;4.780;2022-08-01T14:48:44;27.10;75.80
15930;DHT22;8064;51.142;4.780;2022-08-01T14:51:09;27.10;76.30
15930;DHT22;8064;51.142;4.780;2022-08-01T14:53:35;27.00;76.80
15930;DHT22;8064;51.142;4.780;2022-08-01T14:56:03;26.90;76.80
15930;DHT22;8064;51.142;4.780;2022-08-01T14:58:29;26.90;77.00
15930;DHT22;8064;51.142;4.780;2022-08-01T15:00:55;26.90;77.20
15930;DHT22;8064;51.142;4.780;2022-08-01T15:03:21;26.90;77.50
15930;DHT22;8064;51.142;4.780;2022-08-01T15:05:47;26.90;77.50
15930;DHT22;8064;51.142;4.780;2022-08-01T15:08:13;26.90;77.00
15930;DHT22;8064;51.142;4.780;2022-08-01T15:10:39;26.90;76.50
15930;DHT22;8064;51.142;4.780;2022-08-01T15:13:05;26.90;76.20
15930;DHT22;8064;51.142;4.780;2022-08-01T15:15:31;26.90;76.10
15930;DHT22;8064;51.142;4.780;2022-08-01T15:17:57;26.90;75.80
15930;DHT22;8064;51.142;4.780;2022-08-01T15:20:23;26.90;75.70
15930;DHT22;8064;51.142;4.780;2022-08-01T15:22:49;26.90;75.70
15930;DHT22;8064;51.142;4.780;2022-08-01T15:25:15;26.90;75.60
15930;DHT22;8064;51.142;4.780;2022-08-01T15:27:41;26.90;75.50
15930;DHT22;8064;51.142;4.780;2022-08-01T15:30:08;26.80;75.20
15930;DHT22;8064;51.142;4.780;2022-08-01T15:32:33;26.80;75.50
15930;DHT22;8064;51.142;4.780;2022-08-01T15:34:59;26.80;75.60
15930;DHT22;8064;51.142;4.780;2022-08-01T15:37:25;26.80;75.60
15930;DHT22;8064;51.142;4.780;2022-08-01T15:39:51;26.80;75.30
15930;DHT22;8064;51.142;4.780;2022-08-01T15:42:17;26.80;75.20
15930;DHT22;8064;51.142;4.780;2022-08-01T15:44:43;26.80;75.40
15930;DHT22;8064;51.142;4.780;2022-08-01T15:47:10;26.70;75.30
15930;DHT22;8064;51.142;4.780;2022-08-01T15:49:36;26.70;75.20
15930;DHT22;8064;51.142;4.780;2022-08-01T15:52:04;26.70;75.30
15930;DHT22;8064;51.142;4.780;2022-08-01T15:54:30;26.70;75.30
15930;DHT22;8064;51.142;4.780;2022-08-01T15:56:55;26.70;75.10
15930;DHT22;8064;51.142;4.780;2022-08-01T15:59:21;26.70;75.00
15930;DHT22;8064;51.142;4.780;2022-08-01T16:01:47;26.70;76.10
15930;DHT22;8064;51.142;4.780;2022-08-01T16:04:14;26.60;75.50
15930;DHT22;8064;51.142;4.780;2022-08-01T16:06:41;26.60;75.50
15930;DHT22;8064;51.142;4.780;2022-08-01T16:09:08;26.60;75.80
15930;DHT22;8064;51.142;4.780;2022-08-01T16:11:34;26.60;75.80
15930;DHT22;8064;51.142;4.780;2022-08-01T16:14:00;26.60;75.50
15930;DHT22;8064;51.142;4.780;2022-08-01T16:16:26;26.60;75.40
15930;DHT22;8064;51.142;4.780;2022-08-01T16:18:52;26.60;75.00
15930;DHT22;8064;51.142;4.780;2022-08-01T16:21:17;26.60;74.80
15930;DHT22;8064;51.142;4.780;2022-08-01T16:23:44;26.50;74.10
15930;DHT22;8064;51.142;4.780;2022-08-01T16:26:11;26.50;73.70
15930;DHT22;8064;51.142;4.780;2022-08-01T16:28:37;26.50;74.10
15930;DHT22;8064;51.142;4.780;2022-08-01T16:31:03;26.50;73.90
15930;DHT22;8064;51.142;4.780;2022-08-01T16:33:29;26.50;73.40
15930;DHT22;8064;51.142;4.780;2022-08-01T16:35:56;26.40;73.00